Airway Heights, Washington
Current Conditions -  °F | °C
As of 5:53 AM on Saturday 25 Oct 2014 (Local Time) from KGEG Reporting Station
Broken Clouds Broken Clouds  
Wind Chill: 40°   Ceiling: 25000
Heat Index: 44°   Visibility: 10mi
Dew Point: 41°   Wind: 8mph
Humidity: 89%   Direction: 40°NE
Pressure: 29.76"   Gusts: NA
Location:  47.64°N, 117.59°W
Report Text: KGEG 251253Z 04007KT 10SM SCT200 BKN250 07/05 A2976 RMK AO2 SLP080 T00670050
Loading
Personal Weather Stations






























Interactive Weather Map
Tropical Storm Tracking
New forecast layout! Learn more

10-Day Weather Forecast

Advertisements
Track Severe Weather on mobile